Flight Track Log - Related Links

Times and Time Zones

All times are in EST time to prevent confusion due to time zone crossing. See the N789EX flight status page for this flight to view local times or setup timezone preferences in your user account.

Time Position Orientation Groundspeed Altitude Reporting Facility
EST Latitude Longitude Course Direction KTS MPH feet Rate Location/Type
Tue 03:13:36 PM 47.2419 -119.3392 234° Southwest 190 219 2,300  Level Seattle Center
Tue 03:14:37 PM 47.2164 -119.4147 244° Southwest 219 252 3,200 1,516 Climbing Seattle Center
Tue 03:19:00 PM 47.2399 -119.5793 234° Southwest  Level Estimated
Tue 03:19:40 PM 46.9640 -119.7840 244° Southwest 317 365 11,500  Level FlightAware ADS-B
Tue 03:20:13 PM 46.9170 -119.8020 195° South 344 396 12,700 2,211 Climbing FlightAware ADS-B
Tue 03:20:37 PM 46.8810 -119.7840 161° South 357 411 13,600 2,111 Climbing FlightAware ADS-B
Tue 03:21:07 PM 46.8450 -119.7290 134° Southeast 383 441 14,600 2,031 Climbing FlightAware ADS-B
Tue 03:21:42 PM 46.8160 -119.6490 118° Southeast 392 451 15,800 2,000 Climbing FlightAware ADS-B
Tue 03:22:16 PM 46.7870 -119.5700 118° Southeast 398 458 16,900 1,826 Climbing FlightAware ADS-B
Tue 03:22:51 PM 46.7560 -119.4860 118° Southeast 407 468 17,900 1,806 Climbing FlightAware ADS-B
Tue 03:23:49 PM 46.7040 -119.3430 118° Southeast 414 476 19,700 1,895 Climbing FlightAware ADS-B
Tue 03:24:26 PM 46.6720 -119.2510 117° Southeast 417 480 20,900 1,652 Climbing FlightAware ADS-B
Tue 03:24:58 PM 46.6440 -119.1710 117° Southeast 424 488 21,600 1,364 Climbing FlightAware ADS-B
Tue 03:25:32 PM 46.6140 -119.0850 117° Southeast 432 497 22,400 1,310 Climbing FlightAware ADS-B
Tue 03:26:25 PM 46.5640 -118.9440 117° Southeast 444 511 23,500 1,351 Climbing FlightAware ADS-B
Tue 03:27:23 PM 46.5090 -118.7870 117° Southeast 448 516 24,900 1,485 Climbing FlightAware ADS-B
Tue 03:28:02 PM 46.4750 -118.6890 117° Southeast 444 511 25,900 1,545 Climbing FlightAware ADS-B
Tue 03:28:29 PM 46.4480 -118.6150 118° Southeast 443 510 26,600 1,084 Climbing FlightAware ADS-B
Tue 03:29:25 PM 46.3920 -118.4690 119° Southeast 452 520 27,400 857 Climbing FlightAware ADS-B
Tue 03:29:53 PM 46.3650 -118.3950 118° Southeast 456 525 27,800 737 Climbing FlightAware ADS-B
Tue 03:30:22 PM 46.3340 -118.3150 119° Southeast 462 532 28,100 261 Climbing FlightAware ADS-B
Tue 03:31:02 PM 46.3000 -118.2220 118° Southeast 462 532 28,100 960 Level FlightAware ADS-B
Tue 03:31:37 PM 46.2560 -118.1090 119° Southeast 472 543 29,300 1,629 Climbing FlightAware ADS-B
Tue 03:32:12 PM 46.2200 -118.0140 119° Southeast 468 539 30,000 488 Climbing FlightAware ADS-B
Tue 03:33:03 PM 46.1670 -117.8740 119° Southeast 489 563 30,000  Level FlightAware ADS-B
Tue 03:33:41 PM 46.1240 -117.7590 118° Southeast 506 582 30,000  Level FlightAware ADS-B
Tue 03:34:09 PM 46.0930 -117.6770 119° Southeast 516 594 30,000  Level FlightAware ADS-B
Tue 03:34:39 PM 46.0580 -117.5830 118° Southeast 528 608 30,000  Level FlightAware ADS-B
Tue 03:35:30 PM 45.9990 -117.4270 119° Southeast 535 616 30,000  Level FlightAware ADS-B
Tue 03:36:21 PM 45.9380 -117.2650 118° Southeast 538 619 30,000  Level FlightAware ADS-B
Tue 03:37:18 PM 45.8750 -117.0860 117° Southeast 536 617 30,000 67 Level FlightAware ADS-B
Tue 03:37:50 PM 45.8380 -116.9860 118° Southeast 535 616 30,100 -88 Climbing FlightAware ADS-B
Tue 03:38:26 PM 45.8160 -116.8590 104° East 561 646 29,900 -74 Descending FlightAware ADS-B
Tue 03:39:11 PM 45.8440 -116.6960 76° East 574 661 30,000 74 Climbing FlightAware ADS-B
Tue 03:39:47 PM 45.9020 -116.5890 52° Northeast 579 666 30,000  Level FlightAware ADS-B
Tue 03:40:10 PM 45.9460 -116.5410 37° Northeast 578 665 30,000  Level FlightAware ADS-B
Tue 03:40:49 PM 46.0210 -116.4740 32° Northeast 578 665 30,000  Level FlightAware ADS-B
Tue 03:41:14 PM 46.0700 -116.4300 32° Northeast 578 665 30,000  Level FlightAware ADS-B
Tue 03:41:38 PM 46.1160 -116.3890 32° Northeast 578 665 30,000  Level FlightAware ADS-B
Tue 03:42:15 PM 46.1870 -116.3240 32° Northeast 578 665 30,000  Level FlightAware ADS-B
Tue 03:42:51 PM 46.2570 -116.2620 31° Northeast 578 665 30,000  Level FlightAware ADS-B
Tue 03:43:27 PM 46.3260 -116.1990 32° Northeast 578 665 30,000  Level FlightAware ADS-B
Tue 03:44:15 PM 46.4180 -116.1150 32° Northeast 578 665 30,000  Level FlightAware ADS-B
Tue 03:44:51 PM 46.4880 -116.0520 32° Northeast 578 665 30,000  Level FlightAware ADS-B
Tue 03:45:28 PM 46.5590 -115.9870 32° Northeast 578 665 30,000  Level FlightAware ADS-B
Tue 03:46:19 PM 46.6570 -115.8980 32° Northeast 578 665 30,000  Level FlightAware ADS-B
Tue 03:47:31 PM 46.7960 -115.7710 32° Northeast 578 665 30,000  Level FlightAware ADS-B
Tue 03:48:07 PM 46.8660 -115.7080 32° Northeast 578 665 30,000  Level FlightAware ADS-B
Tue 03:49:06 PM 46.9790 -115.6040 32° Northeast 578 665 30,000  Level FlightAware ADS-B
Tue 03:49:52 PM 47.0680 -115.5220 32° Northeast 578 665 30,000  Level FlightAware ADS-B
Tue 03:50:04 PM 47.0910 -115.5010 32° Northeast 578 665 30,000 -146 Level FlightAware ADS-B
Tue 03:51:14 PM 47.6058 -116.0878 32° Northeast 539 620 29,800 -92 Descending Seattle Center
Tue 03:52:15 PM 47.6539 -116.2833 290° West 510 587 29,800 -49 Level Seattle Center
Tue 03:53:16 PM 47.6969 -116.4783 288° West 504 580 29,700 98 Descending Seattle Center
Tue 03:54:17 PM 47.7300 -116.6756 284° West 500 575 30,000 98 Climbing Seattle Center
Tue 03:55:18 PM 47.7469 -116.8733 277° West 491 565 29,900  Descending Seattle Center
Tue 03:56:19 PM 47.7678 -117.0714 279° West 494 568 30,000 49 Climbing Seattle Center
Tue 03:57:20 PM 47.7919 -117.3086 279° West 495 570 30,000  Level Seattle Center
Tue 03:58:21 PM 47.8119 -117.5047 279° West 488 562 30,000  Level Seattle Center
Tue 03:59:22 PM 47.8300 -117.7019 278° West 486 559 30,000 -99 Level Seattle Center
Tue 04:00:22 PM 47.8483 -117.9014 278° West 488 562 29,800 -15 Descending Seattle Center
Tue 04:05:56 PM 47.9230 -119.0380 278° West 485 558 29,900 31 Climbing FlightAware ADS-B
Tue 04:06:48 PM 47.9360 -119.2040 277° West 480 552 30,000 58 Climbing FlightAware ADS-B
Tue 04:07:39 PM 47.9450 -119.3800 274° West 485 558 30,000 -73 Level FlightAware ADS-B
Tue 04:08:10 PM 47.9520 -119.4820 276° West 485 558 29,900 94 Descending FlightAware ADS-B
Tue 04:08:43 PM 47.9540 -119.5900 272° West 479 551 30,100 190 Climbing FlightAware ADS-B
Tue 04:09:13 PM 47.9530 -119.6890 269° West 479 551 30,100 -76 Level FlightAware ADS-B
Tue 04:10:02 PM 47.9640 -119.8540 276° West 490 564 30,000 -77 Descending FlightAware ADS-B
Tue 04:10:31 PM 47.9750 -119.9500 280° West 488 562 30,000 113 Level FlightAware ADS-B
Tue 04:10:55 PM 47.9820 -120.0280 278° West 483 556 30,100 67 Climbing FlightAware ADS-B
Tue 04:12:00 PM 47.9960 -120.2420 276° West 480 552 30,100 -48 Level FlightAware ADS-B
Tue 04:13:01 PM 48.0130 -120.4410 277° West 484 557 30,000 -46 Descending FlightAware ADS-B
Tue 04:14:11 PM 48.0330 -120.6730 277° West 485 558 30,000  Level FlightAware ADS-B
Tue 04:15:06 PM 48.0500 -120.8550 278° West 487 560 30,000  Level FlightAware ADS-B
Tue 04:15:31 PM 48.0580 -120.9390 278° West 487 560 30,000  Level FlightAware ADS-B
Tue 04:16:26 PM 48.0740 -121.1220 278° West 485 558 30,000  Level FlightAware ADS-B
Tue 04:17:01 PM 48.0850 -121.2380 278° West 485 558 30,000  Level FlightAware ADS-B
Tue 04:17:41 PM 48.0960 -121.3700 277° West 485 558 30,000  Level FlightAware ADS-B
Tue 04:18:11 PM 48.1040 -121.4670 277° West 486 559 30,000  Level FlightAware ADS-B
Tue 04:19:11 PM 48.1190 -121.6700 276° West 484 557 30,000 67 Level FlightAware ADS-B
Tue 04:19:40 PM 48.1250 -121.7710 275° West 480 552 30,100 72 Climbing FlightAware ADS-B
Tue 04:20:34 PM 48.1350 -121.9490 275° West 475 547 30,100  Level FlightAware ADS-B
Tue 04:21:21 PM 48.1410 -122.0990 273° West 470 541 30,100 -69 Level FlightAware ADS-B
Tue 04:22:01 PM 48.1480 -122.2310 275° West 473 544 30,000 -100 Descending FlightAware ADS-B
Tue 04:22:21 PM 48.1650 -122.2910 293° West 475 547 30,000 -136 Level FlightAware ADS-B
Tue 04:22:45 PM 48.2010 -122.3460 314° West 491 565 29,900 -120 Descending FlightAware ADS-B
Tue 04:23:11 PM 48.2580 -122.3720 343° North 513 590 29,900  Level FlightAware ADS-B
Tue 04:23:48 PM 48.3350 -122.3150 26° Northeast 517 595 29,900  Level FlightAware ADS-B
Tue 04:24:16 PM 48.3550 -122.2280 71° East 491 565 29,900 103 Level FlightAware ADS-B
Tue 04:24:46 PM 48.3410 -122.1300 102° East 466 536 30,000 70 Climbing FlightAware ADS-B
Tue 04:25:42 PM 48.2940 -121.9600 113° Southeast 476 548 30,000 114 Level FlightAware ADS-B
Tue 04:26:31 PM 48.2240 -121.8290 129° Southeast 486 559 30,200 566 Climbing FlightAware ADS-B
Tue 04:27:28 PM 48.1460 -121.6790 128° Southeast 493 567 31,000 774 Climbing FlightAware ADS-B
Tue 04:28:04 PM 48.1250 -121.5620 105° East 521 600 31,400 909 Climbing FlightAware ADS-B
Tue 04:28:34 PM 48.1190 -121.4450 94° East 523 602 32,000 1,055 Climbing FlightAware ADS-B
Tue 04:29:35 PM 48.1050 -121.2270 95° East 519 597 33,000 561 Climbing FlightAware ADS-B
Tue 04:30:21 PM 48.0930 -121.0690 96° East 521 600 33,000 63 Level FlightAware ADS-B
Tue 04:31:11 PM 48.0780 -120.8910 97° East 515 593 33,100 -57 Climbing FlightAware ADS-B
Tue 04:32:06 PM 48.0640 -120.6970 96° East 515 593 32,900 -160 Descending FlightAware ADS-B
Tue 04:32:26 PM 48.0580 -120.6270 97° East 515 593 32,900 150 Level FlightAware ADS-B
Tue 04:33:26 PM 48.0430 -120.4160 96° East 512 589 33,100 50 Climbing FlightAware ADS-B
Tue 04:34:26 PM 48.0270 -120.2060 96° East 513 590 33,000 -57 Descending FlightAware ADS-B
Tue 04:35:11 PM 48.0180 -120.0440 95° East 515 593 33,000  Level FlightAware ADS-B
Tue 04:36:06 PM 48.0090 -119.8540 94° East 515 593 33,000  Level FlightAware ADS-B
Tue 04:36:21 PM 48.0070 -119.7980 93° East 518 596 33,000 79 Level FlightAware ADS-B
Tue 04:37:22 PM 48.0000 -119.5750 93° East 519 597 33,100  Climbing FlightAware ADS-B
Tue 04:38:11 PM 47.9930 -119.4000 93° East 510 587 33,000 -57 Descending FlightAware ADS-B
Tue 04:39:08 PM 47.9830 -119.2050 94° East 517 595 33,000  Level FlightAware ADS-B
Tue 04:39:58 PM 47.9740 -119.0210 94° East 518 596 33,000  Level FlightAware ADS-B
Tue 04:40:33 PM 47.9660 -118.9090 96° East 500 575 33,000  Level FlightAware ADS-B
Tue 04:41:01 PM 47.9550 -118.8290 102° East 500 575 33,000  Level FlightAware ADS-B
Tue 04:41:41 PM 47.9320 -118.6700 102° East 508 585 33,000  Level FlightAware ADS-B
Tue 04:42:30 PM 47.9150 -118.5260 100° East 508 585 33,000  Level FlightAware ADS-B
Tue 04:43:18 PM 47.8980 -118.3860 100° East 508 585 33,000  Level FlightAware ADS-B
Tue 04:43:54 PM 47.8860 -118.2800 100° East 508 585 33,000  Level FlightAware ADS-B
Tue 04:44:30 PM 47.8730 -118.1740 100° East 508 585 33,000  Level FlightAware ADS-B
Tue 04:45:18 PM 47.8570 -118.0340 100° East 508 585 33,000  Level FlightAware ADS-B
Tue 04:45:54 PM 47.8440 -117.9280 100° East 508 585 33,000  Level FlightAware ADS-B
Tue 04:46:42 PM 47.8270 -117.7870 100° East 508 585 33,000  Level FlightAware ADS-B
Tue 04:47:06 PM 47.8190 -117.7170 100° East 508 585 33,000  Level FlightAware ADS-B
Tue 04:47:54 PM 47.8020 -117.5760 100° East 508 585 33,000  Level FlightAware ADS-B
Tue 04:49:07 PM 47.7770 -117.3630 100° East 508 585 33,000  Level FlightAware ADS-B
Tue 04:49:55 PM 47.7600 -117.2220 100° East 508 585 33,000  Level FlightAware ADS-B
Tue 04:50:55 PM 47.7390 -117.0470 100° East 508 585 33,000  Level FlightAware ADS-B
Tue 04:52:45 PM 47.9540 -118.8740 281° West 421 484 33,000  Level FlightAware ADS-B
Tue 04:53:36 PM 47.9780 -119.0760 280° West 435 501 33,000  Level FlightAware ADS-B
Tue 04:54:03 PM 47.9790 -119.1530 271° West 443 510 33,000 83 Level FlightAware ADS-B
Tue 04:54:48 PM 47.9800 -119.2950 271° West 445 512 33,100 58 Climbing FlightAware ADS-B
Tue 04:55:47 PM 47.9810 -119.4780 271° West 445 512 33,100  Level FlightAware ADS-B
Tue 04:56:30 PM 47.9820 -119.6100 271° West 445 512 33,100  Level FlightAware ADS-B
Tue 04:57:22 PM 47.9820 -119.7700 270° West 448 516 33,100 -222 Level FlightAware ADS-B
Tue 04:58:18 PM 47.9830 -119.9390 271° West 446 513 32,700 55 Descending FlightAware ADS-B
Tue 04:59:11 PM 47.9880 -120.1000 273° West 451 519 33,200 393 Climbing FlightAware ADS-B
Tue 05:00:05 PM 48.0010 -120.2670 277° West 448 516 33,400 -170 Climbing FlightAware ADS-B
Tue 05:00:57 PM 48.0140 -120.4260 277° West 448 516 32,900 -247 Descending FlightAware ADS-B
Tue 05:01:42 PM 48.0220 -120.5660 275° West 440 506 33,000 74 Climbing FlightAware ADS-B
Tue 05:02:18 PM 48.0270 -120.6750 274° West 439 505 33,000  Level FlightAware ADS-B
Tue 05:03:21 PM 48.0440 -120.8650 278° West 448 516 33,000 -50 Level FlightAware ADS-B
Tue 05:04:17 PM 48.0580 -121.0320 277° West 442 509 32,900  Descending FlightAware ADS-B
Tue 05:05:06 PM 48.0690 -121.1840 276° West 443 510 33,000 61 Climbing FlightAware ADS-B
Tue 05:05:56 PM 48.0770 -121.3330 275° West 445 512 33,000  Level FlightAware ADS-B
Tue 05:06:47 PM 48.0850 -121.4960 274° West 452 520 33,000  Level FlightAware ADS-B
Tue 05:07:41 PM 48.0970 -121.6660 276° West 466 536 33,000  Level FlightAware ADS-B
Tue 05:08:24 PM 48.1060 -121.8050 276° West 469 540 33,000  Level FlightAware ADS-B
Tue 05:09:05 PM 48.1160 -121.9390 276° West 473 544 33,000 -51 Level FlightAware ADS-B
Tue 05:10:21 PM 48.0710 -122.1420 252° West 445 512 32,900  Descending FlightAware ADS-B
Tue 05:10:28 PM 48.0560 -122.1440 185° South 452 520 33,000 182 Climbing FlightAware ADS-B
Tue 05:10:54 PM 48.0090 -122.1120 156° South 481 554 33,000  Level FlightAware ADS-B
Tue 05:11:28 PM 47.9870 -122.0230 110° East 541 623 33,000  Level FlightAware ADS-B
Tue 05:12:07 PM 48.0060 -121.8600 80° East 557 641 33,000 92 Level FlightAware ADS-B
Tue 05:12:33 PM 48.0160 -121.7530 82° East 562 647 33,100  Climbing FlightAware ADS-B
Tue 05:13:17 PM 48.0320 -121.5840 82° East 564 649 33,000 -130 Descending FlightAware ADS-B
Tue 05:14:05 PM 48.0480 -121.3920 83° East 568 654 32,900 -59 Descending FlightAware ADS-B
Tue 05:14:59 PM 48.0640 -121.1830 83° East 568 654 32,900  Level FlightAware ADS-B
Tue 05:15:24 PM 48.0680 -121.0840 87° East 564 649 32,900 69 Level FlightAware ADS-B
Tue 05:16:26 PM 48.0600 -120.8480 93° East 558 642 33,000  Climbing FlightAware ADS-B
Tue 05:17:11 PM 48.0500 -120.6750 95° East 560 644 32,900 -126 Descending FlightAware ADS-B
Tue 05:18:01 PM 48.0390 -120.4900 95° East 562 647 32,800 -80 Descending FlightAware ADS-B
Tue 05:18:26 PM 48.0320 -120.3850 96° East 564 649 32,800 320 Level FlightAware ADS-B
Tue 05:19:16 PM 48.0220 -120.1960 94° East 558 642 33,200 126 Climbing FlightAware ADS-B
Tue 05:20:01 PM 48.0130 -120.0250 94° East 550 633 33,000 -126 Descending FlightAware ADS-B
Tue 05:20:51 PM 48.0030 -119.8380 95° East 528 608 33,000 -680 Level FlightAware ADS-B
Tue 05:21:38 PM 47.9940 -119.6680 94° East 500 575 31,900 -2,842 Descending FlightAware ADS-B
Tue 05:22:26 PM 47.9850 -119.5060 95° East 486 559 28,500 -2,824 Descending FlightAware ADS-B
Tue 05:23:03 PM 47.9800 -119.3970 94° East 482 555 27,900 -367 Descending FlightAware ADS-B
Tue 05:24:04 PM 47.9720 -119.2250 94° East 482 555 27,900  Level FlightAware ADS-B
Tue 05:24:40 PM 47.9670 -119.1230 94° East 482 555 27,900  Level FlightAware ADS-B
Tue 05:25:29 PM 47.9610 -118.9850 94° East 482 555 27,900  Level FlightAware ADS-B
Tue 05:26:17 PM 47.9540 -118.8490 94° East 482 555 27,900 -5,735 Level FlightAware ADS-B
Tue 05:27:45 PM 47.9094 -119.5783 94° East 260 299 14,900 -5,235 Descending Seattle Center
Tue 05:28:46 PM 47.9144 -119.6764 274° West 239 275 14,900  Level Seattle Center
Tue 05:29:47 PM 47.9108 -119.7644 267° West 216 249 14,900 49 Level Seattle Center
Tue 05:30:48 PM 47.9078 -119.8369 266° West 182 209 15,000  Climbing Seattle Center
Tue 05:31:49 PM 47.9050 -119.9161 267° West 190 219 14,900 -50 Descending Seattle Center
Tue 05:32:49 PM 47.9025 -120.0175 268° West 243 280 14,900  Level Seattle Center
Tue 05:33:50 PM 47.8972 -120.1339 266° West 274 315 14,900 -33 Level Seattle Center
Tue 05:38:51 PM 47.8690 -120.8750 266° West 378 435 14,700 -55 Descending FlightAware ADS-B
Tue 05:39:18 PM 47.8660 -120.9370 266° West 377 434 14,600 -429 Descending FlightAware ADS-B
Tue 05:40:01 PM 47.8610 -121.0440 266° West 355 409 14,200 -918 Descending FlightAware ADS-B
Tue 05:40:56 PM 47.8560 -121.1790 267° West 330 380 13,100 -1,364 Descending FlightAware ADS-B
Tue 05:41:51 PM 47.8610 -121.3030 273° West 322 371 11,700 -1,500 Descending FlightAware ADS-B
Tue 05:42:16 PM 47.8640 -121.3490 276° West 318 366 11,100 -1,520 Descending FlightAware ADS-B
Tue 05:43:06 PM 47.8720 -121.4630 276° West 312 359 9,800 -1,040 Descending FlightAware ADS-B
Tue 05:43:31 PM 47.8740 -121.5050 274° West 292 336 9,800 -90 Level FlightAware ADS-B
Tue 05:44:13 PM 47.8800 -121.5910 276° West 262 302 9,700 -91 Descending FlightAware ADS-B
Tue 05:44:37 PM 47.8820 -121.6350 274° West 263 303 9,700 -130 Level FlightAware ADS-B
Tue 05:44:59 PM 47.8840 -121.6730 275° West 263 303 9,600 -957 Descending FlightAware ADS-B
Tue 05:45:46 PM 47.8660 -121.7520 251° West 244 281 8,600 -1,500 Descending FlightAware ADS-B
Tue 05:46:11 PM 47.8560 -121.7900 249° West 242 278 7,800 -1,800 Descending FlightAware ADS-B
Tue 05:46:46 PM 47.8410 -121.8440 248° West 235 270 6,800 -1,412 Descending FlightAware ADS-B
Tue 05:47:02 PM 47.8350 -121.8680 250° West 227 261 6,600 -900 Descending FlightAware ADS-B
Tue 05:47:26 PM 47.8250 -121.9020 246° West 219 252 6,200 -1,149 Descending FlightAware ADS-B
Tue 05:47:49 PM 47.8180 -121.9340 252° West 215 247 5,700 -1,317 Descending FlightAware ADS-B
Tue 05:48:07 PM 47.8140 -121.9580 256° West 216 249 5,300 -1,556 Descending FlightAware ADS-B
Tue 05:48:43 PM 47.8070 -122.0110 259° West 219 252 4,300 -1,548 Descending FlightAware ADS-B
Tue 05:49:09 PM 47.8020 -122.0500 259° West 221 254 3,700 -1,258 Descending FlightAware ADS-B
Tue 05:49:45 PM 47.7960 -122.1030 260° West 216 249 3,000 -833 Descending FlightAware ADS-B
Tue 05:50:21 PM 47.7900 -122.1550 260° West 209 241 2,700 -300 Descending FlightAware ADS-B
Tue 05:50:45 PM 47.7860 -122.1910 261° West 209 241 2,700 -490 Level FlightAware ADS-B
Tue 05:51:10 PM 47.7830 -122.2240 262° West 206 237 2,300 -889 Descending FlightAware ADS-B
Tue 05:51:39 PM 47.7780 -122.2670 260° West 208 239 1,900 -414 Descending FlightAware ADS-B
Tue 05:52:08 PM 47.7740 -122.3060 261° West 208 239 1,900  Level FlightAware ADS-B
Tue 05:52:32 PM 47.7710 -122.3380 262° West 201 231 1,900  Level FlightAware ADS-B
Tue 05:52:51 PM 47.7680 -122.3630 260° West 189 217 1,900  Level FlightAware ADS-B
Tue 05:53:12 PM 47.7650 -122.3930 262° West 188 216 1,900  Level FlightAware ADS-B
Tue 05:53:37 PM 47.7590 -122.4210 252° West 189 217 1,900  Level FlightAware ADS-B
Tue 05:54:01 PM 47.7520 -122.4500 250° West 184 212 1,900  Level FlightAware ADS-B
Tue 05:54:23 PM 47.7370 -122.4640 212° Southwest 190 219 1,900  Level FlightAware ADS-B
Tue 05:54:57 PM 47.7080 -122.4500 162° South 197 227 1,900  Level FlightAware ADS-B
Tue 05:55:21 PM 47.6900 -122.4380 156° South 196 226 1,900  Level FlightAware ADS-B
Tue 05:55:50 PM 47.6660 -122.4180 151° Southeast 185 213 1,900  Level FlightAware ADS-B
Tue 05:56:08 PM 47.6520 -122.4060 150° Southeast 182 209 1,900 -130 Level FlightAware ADS-B
Tue 05:56:36 PM 47.6330 -122.3900 150° Southeast 189 217 1,800 -577 Descending FlightAware ADS-B
Tue 05:57:00 PM 47.6150 -122.3740 149° Southeast 167 192 1,400 -833 Descending FlightAware ADS-B
Tue 05:57:12 PM 47.6070 -122.3680 153° Southeast 168 193 1,300 -875 Descending FlightAware ADS-B
Tue 05:57:48 PM 47.6520 -122.4060 330° Northwest 183 211 700 -563 Descending FlightAware ADS-B
Tue 05:58:16 PM 47.6340 -122.3900 149° Southeast 183 211 700 -353 Level FlightAware ADS-B
Tue 05:59:13 PM 47.5303 -122.3042 149° Southeast 161 185 200 -526 Descending Seattle Center

Login

Don't have an account? Register now (free) for customized features, flight alerts, and more!